sensor_id;sensor_type;location;lat;lon;timestamp;pressure;altitude;pressure_sealevel;temperature;humidity
59531;BME280;45349;48.692;8.186;2023-11-18T00:00:45;99596.72;;;6.10;100.00
59531;BME280;45349;48.692;8.186;2023-11-18T00:03:11;99597.44;;;6.12;100.00
59531;BME280;45349;48.692;8.186;2023-11-18T00:05:38;99599.13;;;6.13;100.00
59531;BME280;45349;48.692;8.186;2023-11-18T00:08:06;99586.97;;;6.13;100.00
59531;BME280;45349;48.692;8.186;2023-11-18T00:10:33;99591.34;;;6.13;100.00
59531;BME280;45349;48.692;8.186;2023-11-18T00:12:59;99584.50;;;6.12;100.00
59531;BME280;45349;48.692;8.186;2023-11-18T00:15:27;99580.31;;;6.09;100.00
59531;BME280;45349;48.692;8.186;2023-11-18T00:17:53;99587.16;;;6.10;100.00
59531;BME280;45349;48.692;8.186;2023-11-18T00:20:20;99587.91;;;6.12;100.00
59531;BME280;45349;48.692;8.186;2023-11-18T00:22:49;99586.53;;;6.07;100.00
59531;BME280;45349;48.692;8.186;2023-11-18T00:25:20;99583.94;;;6.07;100.00
59531;BME280;45349;48.692;8.186;2023-11-18T00:27:47;99589.22;;;6.05;100.00
59531;BME280;45349;48.692;8.186;2023-11-18T00:30:18;99589.94;;;6.07;100.00
59531;BME280;45349;48.692;8.186;2023-11-18T00:32:45;99585.81;;;6.04;100.00
59531;BME280;45349;48.692;8.186;2023-11-18T00:35:18;99586.63;;;6.05;100.00
59531;BME280;45349;48.692;8.186;2023-11-18T00:37:45;99584.97;;;6.04;100.00
59531;BME280;45349;48.692;8.186;2023-11-18T00:40:12;99586.75;;;6.03;100.00
59531;BME280;45349;48.692;8.186;2023-11-18T00:42:40;99580.72;;;6.03;100.00
59531;BME280;45349;48.692;8.186;2023-11-18T00:45:07;99573.78;;;6.03;100.00
59531;BME280;45349;48.692;8.186;2023-11-18T00:47:34;99569.69;;;5.99;100.00
59531;BME280;45349;48.692;8.186;2023-11-18T00:50:00;99572.13;;;6.02;100.00
59531;BME280;45349;48.692;8.186;2023-11-18T00:52:28;99565.16;;;6.03;100.00
59531;BME280;45349;48.692;8.186;2023-11-18T00:54:55;99563.41;;;6.03;100.00
59531;BME280;45349;48.692;8.186;2023-11-18T00:57:21;99570.06;;;6.08;100.00
59531;BME280;45349;48.692;8.186;2023-11-18T00:59:49;99570.25;;;6.04;100.00
59531;BME280;45349;48.692;8.186;2023-11-18T01:02:16;99559.03;;;6.04;100.00
59531;BME280;45349;48.692;8.186;2023-11-18T01:04:43;99561.75;;;6.02;100.00
59531;BME280;45349;48.692;8.186;2023-11-18T01:07:11;99569.69;;;5.99;100.00
59531;BME280;45349;48.692;8.186;2023-11-18T01:09:37;99573.09;;;6.00;100.00
59531;BME280;45349;48.692;8.186;2023-11-18T01:12:05;99578.22;;;6.01;100.00
59531;BME280;45349;48.692;8.186;2023-11-18T01:14:35;99588.59;;;6.01;100.00
59531;BME280;45349;48.692;8.186;2023-11-18T01:17:04;99590.44;;;5.99;100.00
59531;BME280;45349;48.692;8.186;2023-11-18T01:19:32;99591.19;;;6.01;100.00
59531;BME280;45349;48.692;8.186;2023-11-18T01:21:59;99590.44;;;5.99;100.00
59531;BME280;45349;48.692;8.186;2023-11-18T01:24:30;99594.88;;;5.97;100.00
59531;BME280;45349;48.692;8.186;2023-11-18T01:26:57;99602.84;;;5.94;100.00
59531;BME280;45349;48.692;8.186;2023-11-18T01:29:24;99600.25;;;5.94;100.00
59531;BME280;45349;48.692;8.186;2023-11-18T01:31:51;99600.25;;;5.94;100.00
59531;BME280;45349;48.692;8.186;2023-11-18T01:34:19;99597.75;;;5.93;100.00
59531;BME280;45349;48.692;8.186;2023-11-18T01:36:46;99593.41;;;5.93;100.00
59531;BME280;45349;48.692;8.186;2023-11-18T01:39:14;99583.13;;;5.91;100.00
59531;BME280;45349;48.692;8.186;2023-11-18T01:41:43;99577.84;;;5.93;100.00
59531;BME280;45349;48.692;8.186;2023-11-18T01:44:09;99577.66;;;5.96;100.00
59531;BME280;45349;48.692;8.186;2023-11-18T01:46:39;99577.75;;;5.95;100.00
59531;BME280;45349;48.692;8.186;2023-11-18T01:49:10;99581.19;;;5.95;100.00
59531;BME280;45349;48.692;8.186;2023-11-18T01:51:38;99577.53;;;5.98;100.00
59531;BME280;45349;48.692;8.186;2023-11-18T01:54:07;99572.66;;;5.93;100.00
59531;BME280;45349;48.692;8.186;2023-11-18T01:56:37;99571.75;;;5.94;100.00
59531;BME280;45349;48.692;8.186;2023-11-18T01:59:04;99575.81;;;5.98;100.00
59531;BME280;45349;48.692;8.186;2023-11-18T02:01:32;99581.81;;;5.99;100.00
59531;BME280;45349;48.692;8.186;2023-11-18T02:04:00;99588.75;;;5.98;100.00
59531;BME280;45349;48.692;8.186;2023-11-18T02:06:27;99592.16;;;5.99;100.00
59531;BME280;45349;48.692;8.186;2023-11-18T02:08:55;99601.38;;;6.04;100.00
59531;BME280;45349;48.692;8.186;2023-11-18T02:11:31;99592.16;;;5.99;100.00
59531;BME280;45349;48.692;8.186;2023-11-18T02:14:08;99595.63;;;5.85;100.00
59531;BME280;45349;48.692;8.186;2023-11-18T02:16:42;99595.03;;;5.81;100.00
59531;BME280;45349;48.692;8.186;2023-11-18T02:19:19;99594.56;;;5.74;100.00
59531;BME280;45349;48.692;8.186;2023-11-18T02:21:46;99596.31;;;5.74;100.00
59531;BME280;45349;48.692;8.186;2023-11-18T02:24:26;99599.28;;;5.68;100.00
59531;BME280;45349;48.692;8.186;2023-11-18T02:26:56;99599.28;;;5.68;100.00
59531;BME280;45349;48.692;8.186;2023-11-18T02:29:24;99596.72;;;5.68;100.00
59531;BME280;45349;48.692;8.186;2023-11-18T02:31:53;99598.25;;;5.70;100.00
59531;BME280;45349;48.692;8.186;2023-11-18T02:34:27;99605.22;;;5.70;100.00
59531;BME280;45349;48.692;8.186;2023-11-18T02:36:57;99601.88;;;5.68;100.00
59531;BME280;45349;48.692;8.186;2023-11-18T02:39:29;99583.09;;;5.64;100.00
59531;BME280;45349;48.692;8.186;2023-11-18T02:42:01;99576.25;;;5.63;100.00
59531;BME280;45349;48.692;8.186;2023-11-18T02:44:29;99571.47;;;5.57;100.00
59531;BME280;45349;48.692;8.186;2023-11-18T02:46:58;99566.78;;;5.49;100.00
59531;BME280;45349;48.692;8.186;2023-11-18T02:49:25;99574.19;;;5.41;100.00
59531;BME280;45349;48.692;8.186;2023-11-18T02:51:53;99576.59;;;5.29;100.00
59531;BME280;45349;48.692;8.186;2023-11-18T02:54:20;99571.34;;;5.16;100.00
59531;BME280;45349;48.692;8.186;2023-11-18T02:56:47;99566.91;;;5.04;100.00
59531;BME280;45349;48.692;8.186;2023-11-18T02:59:15;99559.56;;;4.96;100.00
59531;BME280;45349;48.692;8.186;2023-11-18T03:01:42;99553.56;;;4.81;100.00
59531;BME280;45349;48.692;8.186;2023-11-18T03:04:10;99552.81;;;4.65;100.00
59531;BME280;45349;48.692;8.186;2023-11-18T03:06:36;99557.75;;;4.53;100.00
59531;BME280;45349;48.692;8.186;2023-11-18T03:09:03;99572.25;;;4.41;100.00
59531;BME280;45349;48.692;8.186;2023-11-18T03:11:32;99554.84;;;4.29;100.00
59531;BME280;45349;48.692;8.186;2023-11-18T03:13:59;99550.94;;;4.22;100.00
59531;BME280;45349;48.692;8.186;2023-11-18T03:16:27;99537.91;;;4.09;100.00
59531;BME280;45349;48.692;8.186;2023-11-18T03:18:54;99543.00;;;3.94;100.00
59531;BME280;45349;48.692;8.186;2023-11-18T03:21:21;99554.09;;;3.80;100.00
59531;BME280;45349;48.692;8.186;2023-11-18T03:23:48;99556.69;;;3.64;100.00
59531;BME280;45349;48.692;8.186;2023-11-18T03:26:14;99565.78;;;3.56;100.00
59531;BME280;45349;48.692;8.186;2023-11-18T03:28:41;99568.00;;;3.46;100.00
59531;BME280;45349;48.692;8.186;2023-11-18T03:31:08;99573.44;;;3.41;100.00
59531;BME280;45349;48.692;8.186;2023-11-18T03:33:36;99580.03;;;3.29;100.00
59531;BME280;45349;48.692;8.186;2023-11-18T03:36:03;99564.66;;;3.28;100.00
59531;BME280;45349;48.692;8.186;2023-11-18T03:38:30;99563.56;;;3.16;100.00
59531;BME280;45349;48.692;8.186;2023-11-18T03:40:56;99572.75;;;3.04;100.00
59531;BME280;45349;48.692;8.186;2023-11-18T03:43:23;99571.34;;;2.98;100.00
59531;BME280;45349;48.692;8.186;2023-11-18T03:45:50;99567.91;;;2.98;100.00
59531;BME280;45349;48.692;8.186;2023-11-18T03:48:17;99560.34;;;2.94;100.00
59531;BME280;45349;48.692;8.186;2023-11-18T03:50:45;99565.91;;;2.87;100.00
59531;BME280;45349;48.692;8.186;2023-11-18T03:53:12;99560.75;;;2.87;100.00
59531;BME280;45349;48.692;8.186;2023-11-18T03:55:38;99569.41;;;2.86;100.00
59531;BME280;45349;48.692;8.186;2023-11-18T03:58:05;99570.47;;;2.82;100.00
59531;BME280;45349;48.692;8.186;2023-11-18T04:00:34;99561.81;;;2.83;100.00
59531;BME280;45349;48.692;8.186;2023-11-18T04:03:00;99565.06;;;2.86;100.00
59531;BME280;45349;48.692;8.186;2023-11-18T04:05:27;99575.53;;;2.83;100.00
59531;BME280;45349;48.692;8.186;2023-11-18T04:07:55;99579.09;;;2.80;100.00
59531;BME280;45349;48.692;8.186;2023-11-18T04:10:22;99583.03;;;2.88;100.00
59531;BME280;45349;48.692;8.186;2023-11-18T04:12:49;99579.31;;;2.76;100.00
59531;BME280;45349;48.692;8.186;2023-11-18T04:15:18;99578.34;;;2.78;100.00
59531;BME280;45349;48.692;8.186;2023-11-18T04:17:45;99576.84;;;2.74;100.00
59531;BME280;45349;48.692;8.186;2023-11-18T04:20:12;99575.53;;;2.83;100.00
59531;BME280;45349;48.692;8.186;2023-11-18T04:22:41;99574.63;;;2.84;100.00
59531;BME280;45349;48.692;8.186;2023-11-18T04:25:10;99575.63;;;2.82;100.00
59531;BME280;45349;48.692;8.186;2023-11-18T04:27:37;99571.97;;;2.86;100.00
59531;BME280;45349;48.692;8.186;2023-11-18T04:32:52;99579.16;;;2.79;100.00
59531;BME280;45349;48.692;8.186;2023-11-18T04:35:19;99573.50;;;2.72;100.00
59531;BME280;45349;48.692;8.186;2023-11-18T04:37:47;99566.16;;;2.64;100.00
59531;BME280;45349;48.692;8.186;2023-11-18T04:40:20;99562.97;;;2.59;100.00
59531;BME280;45349;48.692;8.186;2023-11-18T04:42:48;99556.16;;;2.58;100.00
59531;BME280;45349;48.692;8.186;2023-11-18T04:45:18;99555.09;;;2.62;100.00
59531;BME280;45349;48.692;8.186;2023-11-18T04:47:45;99556.97;;;2.59;100.00
59531;BME280;45349;48.692;8.186;2023-11-18T04:50:12;99561.31;;;2.58;100.00
59531;BME280;45349;48.692;8.186;2023-11-18T04:52:39;99563.19;;;2.55;100.00
59531;BME280;45349;48.692;8.186;2023-11-18T04:55:06;99565.16;;;2.49;100.00
59531;BME280;45349;48.692;8.186;2023-11-18T04:57:34;99556.69;;;2.47;100.00
59531;BME280;45349;48.692;8.186;2023-11-18T05:00:01;99545.69;;;2.44;100.00
59531;BME280;45349;48.692;8.186;2023-11-18T05:02:35;99551.69;;;2.44;100.00
59531;BME280;45349;48.692;8.186;2023-11-18T05:05:02;99550.00;;;2.43;100.00
59531;BME280;45349;48.692;8.186;2023-11-18T05:07:30;99545.16;;;2.37;100.00
59531;BME280;45349;48.692;8.186;2023-11-18T05:09:57;99552.13;;;2.35;100.00
59531;BME280;45349;48.692;8.186;2023-11-18T05:12:23;99546.31;;;2.31;100.00
59531;BME280;45349;48.692;8.186;2023-11-18T05:14:51;99543.28;;;2.23;100.00
59531;BME280;45349;48.692;8.186;2023-11-18T05:17:18;99552.88;;;2.19;100.00
59531;BME280;45349;48.692;8.186;2023-11-18T05:19:45;99552.09;;;2.17;100.00
59531;BME280;45349;48.692;8.186;2023-11-18T05:22:12;99555.75;;;2.13;100.00
59531;BME280;45349;48.692;8.186;2023-11-18T05:24:39;99549.88;;;2.11;100.00
59531;BME280;45349;48.692;8.186;2023-11-18T05:27:05;99553.50;;;2.07;100.00
59531;BME280;45349;48.692;8.186;2023-11-18T05:29:32;99552.44;;;2.11;100.00
59531;BME280;45349;48.692;8.186;2023-11-18T05:32:00;99550.69;;;2.12;100.00
59531;BME280;45349;48.692;8.186;2023-11-18T05:34:27;99547.44;;;2.08;100.00
59531;BME280;45349;48.692;8.186;2023-11-18T05:36:54;99551.72;;;2.08;100.00
59531;BME280;45349;48.692;8.186;2023-11-18T05:39:23;99539.63;;;2.10;100.00
59531;BME280;45349;48.692;8.186;2023-11-18T05:41:53;99540.47;;;2.10;100.00
59531;BME280;45349;48.692;8.186;2023-11-18T05:44:21;99538.03;;;2.07;100.00
59531;BME280;45349;48.692;8.186;2023-11-18T05:46:56;99535.47;;;2.07;100.00
59531;BME280;45349;48.692;8.186;2023-11-18T05:49:24;99541.38;;;2.09;100.00
59531;BME280;45349;48.692;8.186;2023-11-18T05:51:51;99535.47;;;2.07;100.00
59531;BME280;45349;48.692;8.186;2023-11-18T05:54:18;99545.75;;;2.07;100.00
59531;BME280;45349;48.692;8.186;2023-11-18T05:56:44;99544.63;;;2.13;100.00
59531;BME280;45349;48.692;8.186;2023-11-18T05:59:11;99535.31;;;2.10;100.00
59531;BME280;45349;48.692;8.186;2023-11-18T06:01:39;99530.31;;;2.07;100.00
59531;BME280;45349;48.692;8.186;2023-11-18T06:04:06;99529.47;;;2.06;100.00
59531;BME280;45349;48.692;8.186;2023-11-18T06:06:34;99525.97;;;2.08;100.00
59531;BME280;45349;48.692;8.186;2023-11-18T06:09:02;99530.38;;;2.05;100.00
59531;BME280;45349;48.692;8.186;2023-11-18T06:11:34;99529.56;;;2.05;100.00
59531;BME280;45349;48.692;8.186;2023-11-18T06:14:06;99521.72;;;2.06;100.00
59531;BME280;45349;48.692;8.186;2023-11-18T06:16:34;99526.69;;;2.11;100.00
59531;BME280;45349;48.692;8.186;2023-11-18T06:19:01;99527.50;;;2.12;100.00
59531;BME280;45349;48.692;8.186;2023-11-18T06:21:30;99522.19;;;2.15;100.00
59531;BME280;45349;48.692;8.186;2023-11-18T06:23:59;99534.16;;;2.16;100.00
59531;BME280;45349;48.692;8.186;2023-11-18T06:26:26;99541.97;;;2.14;100.00
59531;BME280;45349;48.692;8.186;2023-11-18T06:28:55;99537.56;;;2.16;100.00
59531;BME280;45349;48.692;8.186;2023-11-18T06:31:22;99541.66;;;2.20;100.00
59531;BME280;45349;48.692;8.186;2023-11-18T06:33:49;99537.97;;;2.26;100.00
59531;BME280;45349;48.692;8.186;2023-11-18T06:36:17;99541.97;;;2.32;100.00
59531;BME280;45349;48.692;8.186;2023-11-18T06:38:44;99542.72;;;2.34;100.00
59531;BME280;45349;48.692;8.186;2023-11-18T06:41:13;99544.25;;;2.38;100.00
59531;BME280;45349;48.692;8.186;2023-11-18T06:43:42;99537.97;;;2.44;100.00
59531;BME280;45349;48.692;8.186;2023-11-18T06:46:18;99525.84;;;2.46;100.00
59531;BME280;45349;48.692;8.186;2023-11-18T06:48:46;99518.03;;;2.47;100.00
59531;BME280;45349;48.692;8.186;2023-11-18T06:51:14;99517.06;;;2.50;100.00
59531;BME280;45349;48.692;8.186;2023-11-18T06:53:41;99519.22;;;2.58;100.00
59531;BME280;45349;48.692;8.186;2023-11-18T06:56:08;99517.25;;;2.63;100.00
59531;BME280;45349;48.692;8.186;2023-11-18T06:58:38;99523.00;;;2.68;100.00
59531;BME280;45349;48.692;8.186;2023-11-18T07:01:05;99538.00;;;2.77;100.00
59531;BME280;45349;48.692;8.186;2023-11-18T07:03:32;99541.94;;;2.85;100.00
59531;BME280;45349;48.692;8.186;2023-11-18T07:05:57;99530.41;;;2.92;100.00
59531;BME280;45349;48.692;8.186;2023-11-18T07:08:24;99538.78;;;2.95;100.00
59531;BME280;45349;48.692;8.186;2023-11-18T07:10:51;99536.44;;;3.08;100.00
59531;BME280;45349;48.692;8.186;2023-11-18T07:13:17;99540.25;;;3.17;100.00
59531;BME280;45349;48.692;8.186;2023-11-18T07:15:45;99546.06;;;3.21;100.00
59531;BME280;45349;48.692;8.186;2023-11-18T07:18:12;99533.59;;;3.29;100.00
59531;BME280;45349;48.692;8.186;2023-11-18T07:20:38;99533.03;;;3.40;100.00
59531;BME280;45349;48.692;8.186;2023-11-18T07:23:05;99528.19;;;3.50;100.00
59531;BME280;45349;48.692;8.186;2023-11-18T07:25:34;99538.13;;;3.58;100.00
59531;BME280;45349;48.692;8.186;2023-11-18T07:28:00;99540.22;;;3.67;100.00
59531;BME280;45349;48.692;8.186;2023-11-18T07:30:27;99544.09;;;3.74;100.00
59531;BME280;45349;48.692;8.186;2023-11-18T07:32:56;99551.44;;;3.82;100.00
59531;BME280;45349;48.692;8.186;2023-11-18T07:35:25;99551.69;;;3.93;100.00
59531;BME280;45349;48.692;8.186;2023-11-18T07:37:52;99546.16;;;3.99;100.00
59531;BME280;45349;48.692;8.186;2023-11-18T07:40:19;99539.41;;;4.13;100.00
59531;BME280;45349;48.692;8.186;2023-11-18T07:42:53;99534.06;;;4.16;100.00
59531;BME280;45349;48.692;8.186;2023-11-18T07:45:21;99533.50;;;4.25;100.00
59531;BME280;45349;48.692;8.186;2023-11-18T07:47:49;99516.06;;;4.29;100.00
59531;BME280;45349;48.692;8.186;2023-11-18T07:50:20;99519.69;;;4.41;100.00
59531;BME280;45349;48.692;8.186;2023-11-18T07:52:46;99532.94;;;4.51;100.00
59531;BME280;45349;48.692;8.186;2023-11-18T07:55:18;99531.91;;;4.53;100.00
59531;BME280;45349;48.692;8.186;2023-11-18T07:57:48;99542.75;;;4.60;100.00
59531;BME280;45349;48.692;8.186;2023-11-18T08:00:19;99550.22;;;4.65;100.00
59531;BME280;45349;48.692;8.186;2023-11-18T08:02:46;99559.94;;;4.76;100.00
59531;BME280;45349;48.692;8.186;2023-11-18T08:05:20;99551.78;;;4.82;100.00
59531;BME280;45349;48.692;8.186;2023-11-18T08:07:48;99557.28;;;4.92;100.00
59531;BME280;45349;48.692;8.186;2023-11-18T08:10:19;99561.22;;;4.97;100.00
59531;BME280;45349;48.692;8.186;2023-11-18T08:12:47;99548.41;;;5.10;100.00
59531;BME280;45349;48.692;8.186;2023-11-18T08:15:18;99536.47;;;5.22;100.00
59531;BME280;45349;48.692;8.186;2023-11-18T08:17:45;99527.41;;;5.29;100.00
59531;BME280;45349;48.692;8.186;2023-11-18T08:20:11;99536.44;;;5.37;100.00
59531;BME280;45349;48.692;8.186;2023-11-18T08:22:41;99534.94;;;5.47;100.00
59531;BME280;45349;48.692;8.186;2023-11-18T08:25:09;99536.31;;;5.53;100.00
59531;BME280;45349;48.692;8.186;2023-11-18T08:27:38;99539.25;;;5.61;100.00
59531;BME280;45349;48.692;8.186;2023-11-18T08:30:06;99525.94;;;5.67;100.00
59531;BME280;45349;48.692;8.186;2023-11-18T08:32:36;99526.91;;;5.79;100.00
59531;BME280;45349;48.692;8.186;2023-11-18T08:35:05;99533.06;;;5.91;100.00
59531;BME280;45349;48.692;8.186;2023-11-18T08:37:33;99541.84;;;6.03;100.00
59531;BME280;45349;48.692;8.186;2023-11-18T08:40:01;99532.72;;;6.10;100.00
59531;BME280;45349;48.692;8.186;2023-11-18T08:42:28;99523.75;;;6.16;100.00
59531;BME280;45349;48.692;8.186;2023-11-18T08:44:57;99519.41;;;6.29;100.00
59531;BME280;45349;48.692;8.186;2023-11-18T08:47:24;99508.13;;;6.43;100.00
59531;BME280;45349;48.692;8.186;2023-11-18T08:49:51;99499.72;;;6.53;100.00
59531;BME280;45349;48.692;8.186;2023-11-18T08:52:17;99495.25;;;6.55;100.00
59531;BME280;45349;48.692;8.186;2023-11-18T08:54:44;99494.09;;;6.72;100.00
59531;BME280;45349;48.692;8.186;2023-11-18T08:57:26;99489.34;;;6.78;100.00
59531;BME280;45349;48.692;8.186;2023-11-18T08:59:59;99473.44;;;6.83;100.00
59531;BME280;45349;48.692;8.186;2023-11-18T09:02:32;99483.53;;;6.88;100.00
59531;BME280;45349;48.692;8.186;2023-11-18T09:05:02;99484.44;;;7.00;100.00
59531;BME280;45349;48.692;8.186;2023-11-18T09:07:38;99489.50;;;7.14;100.00
59531;BME280;45349;48.692;8.186;2023-11-18T09:10:05;99495.56;;;7.26;100.00
59531;BME280;45349;48.692;8.186;2023-11-18T09:12:35;99490.13;;;7.42;100.00
59531;BME280;45349;48.692;8.186;2023-11-18T09:15:02;99490.47;;;7.62;100.00
59531;BME280;45349;48.692;8.186;2023-11-18T09:17:29;99503.06;;;7.79;100.00
59531;BME280;45349;48.692;8.186;2023-11-18T09:19:56;99496.97;;;7.92;100.00
59531;BME280;45349;48.692;8.186;2023-11-18T09:22:24;99497.28;;;8.11;100.00
59531;BME280;45349;48.692;8.186;2023-11-18T09:24:50;99506.06;;;8.22;100.00
59531;BME280;45349;48.692;8.186;2023-11-18T09:27:17;99508.66;;;8.22;100.00
59531;BME280;45349;48.692;8.186;2023-11-18T09:29:45;99512.25;;;8.32;100.00
59531;BME280;45349;48.692;8.186;2023-11-18T09:32:14;99517.59;;;8.42;100.00
59531;BME280;45349;48.692;8.186;2023-11-18T09:34:41;99499.44;;;8.53;100.00
59531;BME280;45349;48.692;8.186;2023-11-18T09:37:08;99507.50;;;8.73;100.00
59531;BME280;45349;48.692;8.186;2023-11-18T09:39:35;99509.25;;;8.84;100.00
59531;BME280;45349;48.692;8.186;2023-11-18T09:42:07;99508.56;;;8.82;100.00
59531;BME280;45349;48.692;8.186;2023-11-18T09:44:36;99517.91;;;8.73;100.00
59531;BME280;45349;48.692;8.186;2023-11-18T09:47:08;99521.78;;;8.67;100.00
59531;BME280;45349;48.692;8.186;2023-11-18T09:49:40;99530.06;;;8.73;100.00
59531;BME280;45349;48.692;8.186;2023-11-18T09:52:15;99532.44;;;8.76;100.00
59531;BME280;45349;48.692;8.186;2023-11-18T09:54:50;99535.25;;;8.61;100.00
59531;BME280;45349;48.692;8.186;2023-11-18T09:57:31;99527.72;;;8.69;100.00
59531;BME280;45349;48.692;8.186;2023-11-18T10:00:01;99532.13;;;8.80;100.00
59531;BME280;45349;48.692;8.186;2023-11-18T10:02:39;99541.19;;;8.75;100.00
59531;BME280;45349;48.692;8.186;2023-11-18T10:05:06;99540.72;;;8.69;100.00
59531;BME280;45349;48.692;8.186;2023-11-18T10:07:39;99538.03;;;8.71;100.00
59531;BME280;45349;48.692;8.186;2023-11-18T10:10:08;99534.91;;;8.54;100.00
59531;BME280;45349;48.692;8.186;2023-11-18T10:12:41;99533.59;;;8.60;100.00
59531;BME280;45349;48.692;8.186;2023-11-18T10:15:11;99529.72;;;8.54;100.00
59531;BME280;45349;48.692;8.186;2023-11-18T10:17:41;99536.66;;;8.54;99.29
59531;BME280;45349;48.692;8.186;2023-11-18T10:20:21;99536.34;;;8.59;100.00
59531;BME280;45349;48.692;8.186;2023-11-18T10:23:05;99535.41;;;8.60;100.00
59531;BME280;45349;48.692;8.186;2023-11-18T10:25:35;99534.31;;;8.62;99.84
59531;BME280;45349;48.692;8.186;2023-11-18T10:28:06;99540.69;;;8.58;98.31
59531;BME280;45349;48.692;8.186;2023-11-18T10:30:42;99536.69;;;8.65;98.13
59531;BME280;45349;48.692;8.186;2023-11-18T10:33:14;99543.81;;;8.75;99.26
59531;BME280;45349;48.692;8.186;2023-11-18T10:35:49;99529.75;;;8.77;97.79
59531;BME280;45349;48.692;8.186;2023-11-18T10:38:17;99531.38;;;8.67;99.23
59531;BME280;45349;48.692;8.186;2023-11-18T10:40:44;99537.88;;;8.73;99.05
59531;BME280;45349;48.692;8.186;2023-11-18T10:43:10;99544.28;;;8.68;98.29
59531;BME280;45349;48.692;8.186;2023-11-18T10:45:37;99545.00;;;8.82;98.36
59531;BME280;45349;48.692;8.186;2023-11-18T10:48:06;99547.72;;;8.80;97.84
59531;BME280;45349;48.692;8.186;2023-11-18T10:50:34;99539.69;;;8.83;100.00
59531;BME280;45349;48.692;8.186;2023-11-18T10:53:01;99530.78;;;8.75;99.32
59531;BME280;45349;48.692;8.186;2023-11-18T10:55:36;99525.25;;;8.79;100.00
59531;BME280;45349;48.692;8.186;2023-11-18T10:58:03;99526.91;;;8.80;100.00
59531;BME280;45349;48.692;8.186;2023-11-18T11:00:45;99519.34;;;8.77;100.00
59531;BME280;45349;48.692;8.186;2023-11-18T11:03:12;99524.31;;;8.80;100.00
59531;BME280;45349;48.692;8.186;2023-11-18T11:05:40;99529.47;;;8.57;100.00
59531;BME280;45349;48.692;8.186;2023-11-18T11:08:09;99530.41;;;8.56;100.00
59531;BME280;45349;48.692;8.186;2023-11-18T11:10:39;99527.34;;;8.51;100.00
59531;BME280;45349;48.692;8.186;2023-11-18T11:13:08;99521.50;;;8.48;100.00
59531;BME280;45349;48.692;8.186;2023-11-18T11:15:40;99519.25;;;8.43;100.00
59531;BME280;45349;48.692;8.186;2023-11-18T11:18:12;99508.03;;;8.42;100.00
59531;BME280;45349;48.692;8.186;2023-11-18T11:20:57;99496.66;;;8.44;100.00
59531;BME280;45349;48.692;8.186;2023-11-18T11:23:33;99488.59;;;8.35;100.00
59531;BME280;45349;48.692;8.186;2023-11-18T11:26:16;99483.28;;;8.37;100.00
59531;BME280;45349;48.692;8.186;2023-11-18T11:29:03;99476.31;;;8.37;100.00
59531;BME280;45349;48.692;8.186;2023-11-18T11:31:34;99469.56;;;8.35;100.00
59531;BME280;45349;48.692;8.186;2023-11-18T11:34:05;99458.56;;;8.31;100.00
59531;BME280;45349;48.692;8.186;2023-11-18T11:36:37;99449.56;;;8.24;100.00
59531;BME280;45349;48.692;8.186;2023-11-18T11:39:07;99443.53;;;8.23;100.00
59531;BME280;45349;48.692;8.186;2023-11-18T11:41:43;99430.41;;;8.25;100.00
59531;BME280;45349;48.692;8.186;2023-11-18T11:44:12;99432.19;;;8.24;100.00
59531;BME280;45349;48.692;8.186;2023-11-18T11:46:40;99427.78;;;8.13;100.00
59531;BME280;45349;48.692;8.186;2023-11-18T11:49:10;99431.69;;;8.19;100.00
59531;BME280;45349;48.692;8.186;2023-11-18T11:51:47;99423.44;;;8.25;100.00
59531;BME280;45349;48.692;8.186;2023-11-18T11:54:19;99424.50;;;8.23;100.00
59531;BME280;45349;48.692;8.186;2023-11-18T11:56:47;99426.88;;;8.26;100.00
59531;BME280;45349;48.692;8.186;2023-11-18T11:59:15;99426.16;;;8.24;100.00
59531;BME280;45349;48.692;8.186;2023-11-18T12:01:42;99422.94;;;8.20;100.00
59531;BME280;45349;48.692;8.186;2023-11-18T12:04:12;99418.47;;;8.22;100.00
59531;BME280;45349;48.692;8.186;2023-11-18T12:06:48;99414.06;;;8.11;100.00
59531;BME280;45349;48.692;8.186;2023-11-18T12:09:19;99410.41;;;8.14;100.00
59531;BME280;45349;48.692;8.186;2023-11-18T12:11:47;99419.50;;;8.08;100.00
59531;BME280;45349;48.692;8.186;2023-11-18T12:14:15;99415.03;;;8.10;100.00
59531;BME280;45349;48.692;8.186;2023-11-18T12:17:07;99421.75;;;8.13;100.00
59531;BME280;45349;48.692;8.186;2023-11-18T12:19:36;99406.53;;;8.20;100.00
59531;BME280;45349;48.692;8.186;2023-11-18T12:22:12;99390.47;;;8.26;100.00
59531;BME280;45349;48.692;8.186;2023-11-18T12:28:07;99378.16;;;8.28;100.00
59531;BME280;45349;48.692;8.186;2023-11-18T12:30:40;99376.63;;;8.37;100.00
59531;BME280;45349;48.692;8.186;2023-11-18T12:33:18;99372.84;;;8.41;100.00
59531;BME280;45349;48.692;8.186;2023-11-18T12:42:03;99353.81;;;8.63;100.00
59531;BME280;45349;48.692;8.186;2023-11-18T12:44:39;99363.75;;;8.35;100.00
59531;BME280;45349;48.692;8.186;2023-11-18T12:47:08;99351.91;;;8.42;100.00
59531;BME280;45349;48.692;8.186;2023-11-18T12:49:40;99338.53;;;8.47;100.00
59531;BME280;45349;48.692;8.186;2023-11-18T12:52:08;99339.97;;;8.51;100.00
59531;BME280;45349;48.692;8.186;2023-11-18T12:54:36;99341.25;;;8.57;100.00
59531;BME280;45349;48.692;8.186;2023-11-18T12:57:08;99348.03;;;8.60;100.00
59531;BME280;45349;48.692;8.186;2023-11-18T12:59:35;99347.19;;;8.59;100.00
59531;BME280;45349;48.692;8.186;2023-11-18T13:02:06;99354.28;;;8.57;100.00
59531;BME280;45349;48.692;8.186;2023-11-18T13:04:33;99354.03;;;8.37;100.00
59531;BME280;45349;48.692;8.186;2023-11-18T13:07:00;99333.72;;;8.42;100.00
59531;BME280;45349;48.692;8.186;2023-11-18T13:09:28;99324.38;;;8.51;100.00
59531;BME280;45349;48.692;8.186;2023-11-18T13:11:58;99327.31;;;8.24;100.00
59531;BME280;45349;48.692;8.186;2023-11-18T13:14:31;99333.00;;;8.52;100.00
59531;BME280;45349;48.692;8.186;2023-11-18T13:17:01;99329.56;;;8.63;100.00
59531;BME280;45349;48.692;8.186;2023-11-18T13:19:31;99330.63;;;8.60;100.00
59531;BME280;45349;48.692;8.186;2023-11-18T13:22:00;99321.97;;;8.71;98.63